Time;durP1;ratioP1;P1;durP2;ratioP2;P2;SDS_P1;SDS_P2;PMS_P1;PMS_P2;Temp;Humidity;BMP_temperature;BMP_pressure;BME280_temperature;BME280_humidity;BME280_pressure;Samples;Min_cycle;Max_cycle;Signal;HPM_P1;HPM_P2
2021/03/25 00:01:53;;;;;;;;;;;23.70;39.90;;;;;;5072006;28;19943;-41
2021/03/25 00:04:21;;;;;;;;;;;23.70;39.90;;;;;;5073080;28;19928;-40
2021/03/25 00:06:50;;;;;;;;;;;23.70;39.90;;;;;;5082078;28;20401;-40
2021/03/25 00:09:30;;;;;;;;;;;23.70;39.90;;;;;;5072606;28;19928;-40
2021/03/25 00:11:58;;;;;;;;;;;23.70;39.90;;;;;;5072282;28;19927;-42
2021/03/25 00:14:25;;;;;;;;;;;23.70;39.90;;;;;;5072008;28;20294;-40
2021/03/25 00:16:52;;;;;;;;;;;23.70;40.00;;;;;;5071544;28;19924;-40
2021/03/25 00:19:19;;;;;;;;;;;23.70;39.90;;;;;;5071511;28;20308;-40
2021/03/25 00:21:46;;;;;;;;;;;23.60;39.80;;;;;;5071521;28;19927;-40
2021/03/25 00:24:16;;;;;;;;;;;23.60;39.90;;;;;;5071750;28;19920;-40
2021/03/25 00:26:43;;;;;;;;;;;23.60;39.90;;;;;;5071083;28;19930;-39
2021/03/25 00:29:11;;;;;;;;;;;23.60;39.90;;;;;;5071203;28;20011;-41
2021/03/25 00:31:39;;;;;;;;;;;23.60;39.80;;;;;;5070734;28;19921;-40
2021/03/25 00:34:05;;;;;;;;;;;23.60;39.90;;;;;;5071158;28;20003;-40
2021/03/25 00:36:32;;;;;;;;;;;23.60;39.90;;;;;;5054221;28;20280;-40
2021/03/25 00:38:59;;;;;;;;;;;23.60;39.90;;;;;;5072543;28;20368;-40
2021/03/25 00:41:27;;;;;;;;;;;23.60;39.90;;;;;;5071194;28;19928;-40
2021/03/25 00:43:54;;;;;;;;;;;23.60;39.90;;;;;;5072050;28;20375;-40
2021/03/25 00:46:20;;;;;;;;;;;23.60;39.90;;;;;;5072231;28;19920;-40
2021/03/25 00:48:47;;;;;;;;;;;23.60;39.90;;;;;;5070957;28;19920;-40
2021/03/25 00:51:14;;;;;;;;;;;23.60;39.90;;;;;;5072021;28;19920;-40
2021/03/25 00:53:40;;;;;;;;;;;23.60;39.90;;;;;;5071154;28;19927;-40
2021/03/25 00:56:08;;;;;;;;;;;23.60;39.90;;;;;;5071041;28;19943;-42
2021/03/25 00:58:34;;;;;;;;;;;23.60;39.90;;;;;;5071111;28;19967;-40
2021/03/25 01:01:03;;;;;;;;;;;23.60;39.90;;;;;;5071907;28;19920;-41
2021/03/25 01:03:30;;;;;;;;;;;23.60;39.90;;;;;;5071047;28;19963;-47
2021/03/25 01:05:56;;;;;;;;;;;23.60;39.90;;;;;;5077386;28;19953;-40
2021/03/25 01:08:24;;;;;;;;;;;23.60;39.90;;;;;;5071588;28;19920;-41
2021/03/25 01:11:07;;;;;;;;;;;23.60;39.90;;;;;;5070819;28;19921;-43
2021/03/25 01:13:33;;;;;;;;;;;23.60;39.90;;;;;;5070881;28;20279;-40
2021/03/25 01:16:01;;;;;;;;;;;23.60;39.90;;;;;;5103289;28;19921;-43
2021/03/25 01:18:28;;;;;;;;;;;23.60;39.90;;;;;;5070831;28;19926;-40
2021/03/25 01:20:55;;;;;;;;;;;23.50;39.80;;;;;;5071673;28;19924;-40
2021/03/25 01:23:22;;;;;;;;;;;23.60;39.90;;;;;;5070876;28;20257;-40
2021/03/25 01:25:49;;;;;;;;;;;23.60;39.90;;;;;;5070522;28;20633;-41
2021/03/25 01:28:16;;;;;;;;;;;23.60;39.90;;;;;;5070508;28;19920;-41
2021/03/25 01:30:44;;;;;;;;;;;23.60;39.90;;;;;;5068912;28;19924;-40
2021/03/25 01:33:11;;;;;;;;;;;23.50;39.80;;;;;;5072224;28;19927;-41
2021/03/25 01:35:40;;;;;;;;;;;23.60;39.90;;;;;;5071890;28;19932;-40
2021/03/25 01:38:08;;;;;;;;;;;23.60;39.90;;;;;;5071114;28;19928;-41
2021/03/25 01:40:36;;;;;;;;;;;23.50;39.80;;;;;;5070558;28;19920;-40
2021/03/25 01:43:08;;;;;;;;;;;23.50;39.90;;;;;;5070995;28;20282;-43
2021/03/25 01:45:36;;;;;;;;;;;23.50;39.80;;;;;;5071396;28;19920;-41
2021/03/25 01:48:03;;;;;;;;;;;23.50;39.80;;;;;;5070361;28;19969;-42
2021/03/25 01:50:30;;;;;;;;;;;23.50;39.80;;;;;;5071572;28;19920;-40
2021/03/25 01:53:13;;;;;;;;;;;23.50;39.90;;;;;;5070490;28;20314;-40
2021/03/25 01:55:40;;;;;;;;;;;23.50;39.80;;;;;;5070355;28;20000;-43
2021/03/25 01:58:25;;;;;;;;;;;23.50;39.90;;;;;;5070298;28;19920;-40
2021/03/25 02:00:58;;;;;;;;;;;23.50;39.90;;;;;;5070945;28;19928;-42
2021/03/25 02:03:43;;;;;;;;;;;23.50;39.90;;;;;;5071301;28;19943;-40
2021/03/25 02:06:12;;;;;;;;;;;23.50;39.90;;;;;;5072018;28;19924;-41
2021/03/25 02:08:47;;;;;;;;;;;23.50;39.90;;;;;;5073668;28;20369;-41
2021/03/25 02:11:20;;;;;;;;;;;23.50;39.90;;;;;;5075459;28;19935;-40
2021/03/25 02:14:02;;;;;;;;;;;23.50;39.90;;;;;;5058579;28;20352;-40
2021/03/25 02:16:44;;;;;;;;;;;23.50;39.90;;;;;;5090272;28;19928;-41
2021/03/25 02:19:21;;;;;;;;;;;23.50;39.90;;;;;;5057372;28;19928;-40
2021/03/25 02:21:47;;;;;;;;;;;23.50;39.90;;;;;;5074618;28;19924;-41
2021/03/25 02:24:17;;;;;;;;;;;23.50;39.90;;;;;;5075184;28;19920;-42
2021/03/25 02:27:03;;;;;;;;;;;23.50;39.90;;;;;;5075181;28;19962;-38
2021/03/25 02:29:32;;;;;;;;;;;23.50;39.90;;;;;;5073755;28;19977;-40
2021/03/25 02:32:03;;;;;;;;;;;23.50;39.90;;;;;;5072619;28;19951;-40
2021/03/25 02:34:35;;;;;;;;;;;23.50;39.90;;;;;;5075001;28;20383;-41
2021/03/25 02:37:05;;;;;;;;;;;23.50;39.90;;;;;;5074664;28;19924;-40
2021/03/25 02:39:52;;;;;;;;;;;23.50;39.90;;;;;;5074713;28;20394;-40
2021/03/25 02:42:19;;;;;;;;;;;23.40;39.80;;;;;;5067265;28;19999;-40
2021/03/25 02:44:52;;;;;;;;;;;23.50;39.90;;;;;;5074624;28;19921;-40
2021/03/25 02:47:19;;;;;;;;;;;23.40;39.80;;;;;;5073505;28;19921;-41
2021/03/25 02:49:50;;;;;;;;;;;23.50;39.90;;;;;;5073299;28;19920;-40
2021/03/25 02:52:20;;;;;;;;;;;23.40;39.80;;;;;;5074558;28;19920;-40
2021/03/25 02:54:47;;;;;;;;;;;23.50;39.90;;;;;;5073491;28;19924;-40
2021/03/25 02:57:21;;;;;;;;;;;23.40;39.80;;;;;;5073087;28;19921;-40
2021/03/25 02:59:50;;;;;;;;;;;23.40;39.80;;;;;;5073325;28;19921;-41
2021/03/25 03:02:16;;;;;;;;;;;23.40;39.80;;;;;;5074025;28;19921;-40
2021/03/25 03:04:45;;;;;;;;;;;23.40;39.80;;;;;;5074392;28;19925;-40
2021/03/25 03:07:14;;;;;;;;;;;23.50;39.90;;;;;;5073359;28;19920;-40
2021/03/25 03:09:43;;;;;;;;;;;23.40;39.80;;;;;;5074403;28;19925;-42
2021/03/25 03:12:31;;;;;;;;;;;23.40;39.80;;;;;;5072881;28;19920;-41
2021/03/25 03:15:05;;;;;;;;;;;23.40;39.80;;;;;;5082439;28;19920;-40
2021/03/25 03:17:37;;;;;;;;;;;23.40;39.80;;;;;;5072538;28;19929;-40
2021/03/25 03:20:08;;;;;;;;;;;23.40;39.80;;;;;;5071864;28;19935;-40
2021/03/25 03:22:36;;;;;;;;;;;23.40;39.80;;;;;;5074091;28;19928;-41
2021/03/25 03:25:05;;;;;;;;;;;23.40;39.80;;;;;;5072728;28;19926;-41
2021/03/25 03:27:34;;;;;;;;;;;23.40;39.80;;;;;;5072500;28;19920;-40
2021/03/25 03:30:01;;;;;;;;;;;23.40;39.90;;;;;;5073693;28;20269;-41
2021/03/25 03:32:27;;;;;;;;;;;23.40;39.80;;;;;;5071306;28;19927;-40
2021/03/25 03:34:56;;;;;;;;;;;23.40;39.80;;;;;;5072627;28;19973;-40
2021/03/25 03:37:34;;;;;;;;;;;23.40;39.80;;;;;;5073052;28;19920;-40
2021/03/25 03:40:04;;;;;;;;;;;23.40;39.80;;;;;;5072506;28;19932;-41
2021/03/25 03:42:42;;;;;;;;;;;23.40;39.80;;;;;;5072697;28;20019;-41
2021/03/25 03:45:10;;;;;;;;;;;23.40;39.80;;;;;;5072993;28;19924;-40
2021/03/25 03:47:39;;;;;;;;;;;23.40;39.80;;;;;;5072228;28;19927;-41
2021/03/25 03:50:08;;;;;;;;;;;23.40;39.80;;;;;;5072069;28;19927;-40
2021/03/25 03:52:37;;;;;;;;;;;23.30;39.80;;;;;;5072009;28;19956;-41
2021/03/25 03:55:06;;;;;;;;;;;23.30;39.80;;;;;;5071678;28;19921;-41
2021/03/25 03:57:51;;;;;;;;;;;23.30;39.80;;;;;;5072439;28;19920;-41
2021/03/25 04:00:34;;;;;;;;;;;23.40;39.90;;;;;;5072848;28;19928;-42
2021/03/25 04:03:06;;;;;;;;;;;23.40;39.80;;;;;;5072912;28;19924;-40
2021/03/25 04:05:35;;;;;;;;;;;23.30;39.80;;;;;;5075243;28;19927;-45
2021/03/25 04:08:19;;;;;;;;;;;23.30;39.80;;;;;;5083171;28;19927;-41
2021/03/25 04:10:50;;;;;;;;;;;23.40;39.80;;;;;;5071783;28;20070;-45
2021/03/25 04:13:40;;;;;;;;;;;23.40;39.80;;;;;;5072888;28;19920;-42
2021/03/25 04:16:07;;;;;;;;;;;23.40;39.80;;;;;;5068720;28;19928;-40
2021/03/25 04:18:38;;;;;;;;;;;23.40;39.80;;;;;;5071481;28;19924;-43
2021/03/25 04:21:09;;;;;;;;;;;23.30;39.80;;;;;;5071463;28;19927;-40
2021/03/25 04:23:37;;;;;;;;;;;23.40;39.80;;;;;;5073026;28;19927;-41
2021/03/25 04:26:27;;;;;;;;;;;23.40;39.90;;;;;;5087669;28;19928;-40
2021/03/25 04:29:00;;;;;;;;;;;23.30;39.80;;;;;;5054584;28;19920;-41
2021/03/25 04:31:30;;;;;;;;;;;23.30;39.80;;;;;;5060652;28;19920;-40
2021/03/25 04:33:57;;;;;;;;;;;23.30;39.80;;;;;;5072681;28;19928;-40
2021/03/25 04:36:26;;;;;;;;;;;23.30;39.70;;;;;;5071542;28;20003;-40
2021/03/25 04:38:53;;;;;;;;;;;23.30;39.80;;;;;;5072756;28;20854;-42
2021/03/25 04:41:20;;;;;;;;;;;23.30;39.70;;;;;;5071027;28;19935;-40
2021/03/25 04:43:47;;;;;;;;;;;23.30;39.80;;;;;;5073873;28;20384;-40
2021/03/25 04:46:21;;;;;;;;;;;23.30;39.80;;;;;;5072195;28;19920;-40
2021/03/25 04:48:49;;;;;;;;;;;23.30;39.70;;;;;;5072396;28;19921;-40
2021/03/25 04:51:17;;;;;;;;;;;23.30;39.70;;;;;;5072142;28;20360;-39
2021/03/25 04:53:44;;;;;;;;;;;23.30;39.70;;;;;;5072249;28;19920;-40
2021/03/25 04:56:16;;;;;;;;;;;23.30;39.80;;;;;;5070995;28;19921;-41
2021/03/25 04:59:03;;;;;;;;;;;23.30;39.70;;;;;;5073607;28;19931;-40
2021/03/25 05:01:31;;;;;;;;;;;23.30;39.80;;;;;;5070872;28;19920;-40
2021/03/25 05:03:59;;;;;;;;;;;23.30;39.70;;;;;;5071355;28;19954;-41
2021/03/25 05:06:49;;;;;;;;;;;23.30;39.70;;;;;;5079882;28;19920;-40
2021/03/25 05:09:17;;;;;;;;;;;23.30;39.70;;;;;;5053452;28;20332;-40
2021/03/25 05:11:44;;;;;;;;;;;23.30;39.80;;;;;;5072415;28;19964;-40
2021/03/25 05:14:28;;;;;;;;;;;23.30;39.80;;;;;;5071355;28;20279;-40
2021/03/25 05:17:24;;;;;;;;;;;23.30;39.70;;;;;;5071174;28;19924;-40
2021/03/25 05:20:08;;;;;;;;;;;23.30;39.70;;;;;;5052338;28;19921;-41
2021/03/25 05:23:02;;;;;;;;;;;23.30;39.70;;;;;;5071135;28;19928;-40
2021/03/25 05:25:28;;;;;;;;;;;23.30;39.70;;;;;;5053153;28;19928;-39
2021/03/25 05:27:58;;;;;;;;;;;23.30;39.70;;;;;;5071794;28;19931;-40
2021/03/25 05:30:27;;;;;;;;;;;23.30;39.70;;;;;;5069242;28;20372;-40
2021/03/25 05:32:57;;;;;;;;;;;23.30;39.70;;;;;;5070956;28;19928;-40
2021/03/25 05:35:26;;;;;;;;;;;23.30;39.70;;;;;;5070786;28;19928;-39
2021/03/25 05:37:53;;;;;;;;;;;23.30;39.70;;;;;;5071462;28;19924;-39
2021/03/25 05:40:19;;;;;;;;;;;23.30;39.70;;;;;;5071545;28;19930;-40
2021/03/25 05:42:52;;;;;;;;;;;23.30;39.70;;;;;;5105340;28;19927;-40
2021/03/25 05:45:19;;;;;;;;;;;23.30;39.70;;;;;;5074529;28;19921;-41
2021/03/25 05:48:02;;;;;;;;;;;23.20;39.60;;;;;;5075460;28;19920;-40
2021/03/25 05:50:32;;;;;;;;;;;23.30;39.70;;;;;;5108192;27;19921;-40
2021/03/25 05:53:07;;;;;;;;;;;23.30;39.70;;;;;;5108228;27;19967;-41
2021/03/25 05:55:49;;;;;;;;;;;23.30;39.70;;;;;;5075755;28;19920;-41
2021/03/25 05:58:22;;;;;;;;;;;23.30;39.70;;;;;;5087473;28;20398;-41
2021/03/25 06:00:54;;;;;;;;;;;23.30;39.70;;;;;;5075441;28;20249;-41
2021/03/25 06:03:21;;;;;;;;;;;23.30;39.70;;;;;;5075632;28;19920;-40
2021/03/25 06:05:52;;;;;;;;;;;23.30;39.70;;;;;;5077352;28;19963;-41
2021/03/25 06:08:28;;;;;;;;;;;23.30;39.70;;;;;;5075653;28;20291;-40
2021/03/25 06:11:01;;;;;;;;;;;23.30;39.70;;;;;;5070738;28;20072;-41
2021/03/25 06:13:39;;;;;;;;;;;23.30;39.70;;;;;;5075396;28;19920;-41
2021/03/25 06:16:24;;;;;;;;;;;23.30;39.60;;;;;;5073953;28;19927;-41
2021/03/25 06:18:56;;;;;;;;;;;23.30;39.60;;;;;;5074788;28;20362;-41
2021/03/25 06:21:26;;;;;;;;;;;23.30;39.70;;;;;;5073753;28;19921;-40
2021/03/25 06:24:11;;;;;;;;;;;23.30;39.60;;;;;;5073916;28;20358;-40
2021/03/25 06:26:56;;;;;;;;;;;23.30;39.60;;;;;;5073569;28;20295;-41
2021/03/25 06:29:27;;;;;;;;;;;23.30;39.60;;;;;;5074799;28;19920;-40
2021/03/25 06:31:57;;;;;;;;;;;23.30;39.60;;;;;;5071918;28;19946;-42
2021/03/25 06:34:30;;;;;;;;;;;23.30;39.60;;;;;;5073501;28;19920;-40
2021/03/25 06:37:16;;;;;;;;;;;23.30;39.60;;;;;;5073565;28;19968;-41
2021/03/25 06:39:52;;;;;;;;;;;23.30;39.60;;;;;;5073117;28;19990;-40
2021/03/25 06:42:21;;;;;;;;;;;23.30;39.60;;;;;;5073325;28;20265;-40
2021/03/25 06:45:18;;;;;;;;;;;23.30;39.60;;;;;;5074550;28;19968;-40
2021/03/25 06:47:50;;;;;;;;;;;23.30;39.60;;;;;;5074718;28;20363;-40
2021/03/25 06:50:25;;;;;;;;;;;23.30;39.60;;;;;;5074657;28;19986;-42
2021/03/25 06:52:53;;;;;;;;;;;23.30;39.60;;;;;;5072670;28;19950;-40
2021/03/25 06:55:22;;;;;;;;;;;23.30;39.60;;;;;;5073074;28;19931;-40
2021/03/25 06:57:48;;;;;;;;;;;23.30;39.60;;;;;;5073269;28;19943;-41
2021/03/25 07:00:17;;;;;;;;;;;23.30;39.60;;;;;;5073052;28;19921;-39
2021/03/25 07:02:45;;;;;;;;;;;23.30;39.60;;;;;;5074020;28;19924;-39
2021/03/25 07:05:17;;;;;;;;;;;23.30;39.60;;;;;;5073687;28;19928;-40
2021/03/25 07:07:46;;;;;;;;;;;23.30;39.60;;;;;;5077351;28;19921;-41
2021/03/25 07:10:17;;;;;;;;;;;23.30;39.60;;;;;;5072191;28;19928;-40
2021/03/25 07:12:46;;;;;;;;;;;23.40;39.60;;;;;;5072820;28;19920;-40
2021/03/25 07:15:35;;;;;;;;;;;23.30;39.50;;;;;;5072511;28;19920;-41
2021/03/25 07:18:13;;;;;;;;;;;23.30;39.50;;;;;;5106213;28;20287;-41
2021/03/25 07:20:40;;;;;;;;;;;23.40;39.60;;;;;;5072947;28;20291;-39
2021/03/25 07:23:10;;;;;;;;;;;23.30;39.50;;;;;;5072771;28;20322;-40
2021/03/25 07:25:41;;;;;;;;;;;23.30;39.50;;;;;;5072468;28;20408;-39
2021/03/25 07:28:12;;;;;;;;;;;23.30;39.50;;;;;;5073709;28;19920;-40
2021/03/25 07:30:46;;;;;;;;;;;23.30;39.50;;;;;;5070837;28;19975;-40
2021/03/25 07:33:15;;;;;;;;;;;23.40;39.60;;;;;;5073988;28;19942;-45
2021/03/25 07:35:47;;;;;;;;;;;23.40;39.60;;;;;;5073636;28;19930;-41
2021/03/25 07:38:26;;;;;;;;;;;23.30;39.50;;;;;;5072536;28;20374;-41
2021/03/25 07:41:01;;;;;;;;;;;23.40;39.60;;;;;;5073016;28;19932;-41
2021/03/25 07:43:29;;;;;;;;;;;23.40;39.60;;;;;;5072529;28;20023;-40
2021/03/25 07:46:08;;;;;;;;;;;23.40;39.50;;;;;;5073511;28;20372;-40
2021/03/25 07:48:34;;;;;;;;;;;23.40;39.50;;;;;;5055450;28;19932;-40
2021/03/25 07:51:12;;;;;;;;;;;23.30;39.40;;;;;;5074113;28;19921;-41
2021/03/25 07:53:39;;;;;;;;;;;23.40;39.50;;;;;;5072892;28;19921;-40
2021/03/25 07:56:15;;;;;;;;;;;23.30;39.40;;;;;;5072027;28;19920;-39
2021/03/25 07:59:02;;;;;;;;;;;23.40;39.50;;;;;;5073409;28;20367;-47
2021/03/25 08:01:28;;;;;;;;;;;23.40;39.50;;;;;;5089074;28;19924;-41
2021/03/25 08:03:57;;;;;;;;;;;23.40;39.50;;;;;;5073002;28;19931;-44
2021/03/25 08:06:30;;;;;;;;;;;23.40;39.40;;;;;;5113552;27;20421;-41
2021/03/25 08:09:02;;;;;;;;;;;23.40;39.40;;;;;;5076767;28;20382;-40
2021/03/25 08:11:30;;;;;;;;;;;23.40;39.40;;;;;;5070706;28;20329;-40
2021/03/25 08:13:58;;;;;;;;;;;23.40;39.40;;;;;;5072627;28;19925;-39
2021/03/25 08:16:26;;;;;;;;;;;23.40;39.40;;;;;;5072824;28;19935;-40
2021/03/25 08:19:05;;;;;;;;;;;23.40;39.40;;;;;;5072379;28;19924;-40
2021/03/25 08:21:38;;;;;;;;;;;23.40;39.40;;;;;;5071510;28;19921;-40
2021/03/25 08:24:08;;;;;;;;;;;23.40;39.40;;;;;;5071015;28;19920;-40
2021/03/25 08:26:43;;;;;;;;;;;23.40;39.40;;;;;;5072599;28;19920;-40
2021/03/25 08:29:15;;;;;;;;;;;23.40;39.40;;;;;;5057623;28;19924;-40
2021/03/25 08:31:51;;;;;;;;;;;23.40;39.40;;;;;;5071355;28;19971;-40
2021/03/25 08:34:20;;;;;;;;;;;23.40;39.30;;;;;;5071864;28;19928;-40
2021/03/25 08:37:10;;;;;;;;;;;23.40;39.30;;;;;;5071853;28;19921;-39
2021/03/25 08:39:39;;;;;;;;;;;23.50;39.40;;;;;;5064191;28;19927;-40
2021/03/25 08:42:12;;;;;;;;;;;23.50;39.40;;;;;;5071164;28;19928;-40
2021/03/25 08:44:44;;;;;;;;;;;23.50;39.40;;;;;;5070852;28;19921;-41
2021/03/25 08:47:52;;;;;;;;;;;23.40;39.30;;;;;;5071285;28;19943;-40
2021/03/25 08:50:33;;;;;;;;;;;23.50;39.40;;;;;;5072509;28;19955;-40
2021/03/25 08:53:06;;;;;;;;;;;23.50;39.30;;;;;;5072547;28;20291;-41
2021/03/25 08:55:34;;;;;;;;;;;23.40;39.20;;;;;;5070729;28;19928;-43
2021/03/25 08:58:11;;;;;;;;;;;23.50;39.90;;;;;;5072344;28;19920;-41
2021/03/25 09:00:54;;;;;;;;;;;23.50;39.30;;;;;;5070786;28;19931;-40
2021/03/25 09:03:20;;;;;;;;;;;23.50;39.30;;;;;;5072332;28;19947;-40
2021/03/25 09:06:04;;;;;;;;;;;23.50;39.30;;;;;;5075149;28;20343;-41
2021/03/25 09:08:33;;;;;;;;;;;23.50;39.20;;;;;;5075261;28;20394;-41
2021/03/25 09:11:02;;;;;;;;;;;23.50;39.20;;;;;;5070573;28;19924;-41
2021/03/25 09:13:31;;;;;;;;;;;23.50;39.20;;;;;;5072086;28;19938;-40
2021/03/25 09:16:05;;;;;;;;;;;23.50;39.20;;;;;;5072114;28;19924;-39
2021/03/25 09:18:33;;;;;;;;;;;23.50;39.20;;;;;;5103118;28;20291;-40
2021/03/25 09:21:16;;;;;;;;;;;23.50;39.20;;;;;;5070726;28;20288;-40
2021/03/25 09:24:03;;;;;;;;;;;23.50;39.20;;;;;;5070368;28;19921;-39
2021/03/25 09:26:54;;;;;;;;;;;23.50;39.20;;;;;;5071086;28;19927;-41
2021/03/25 09:29:22;;;;;;;;;;;23.50;39.20;;;;;;5070595;28;20292;-42
2021/03/25 09:32:09;;;;;;;;;;;23.50;39.20;;;;;;5068858;28;19999;-40
2021/03/25 09:34:45;;;;;;;;;;;23.50;39.10;;;;;;5066462;28;19966;-40
2021/03/25 09:37:23;;;;;;;;;;;23.50;39.10;;;;;;5070711;28;20315;-40
2021/03/25 09:40:07;;;;;;;;;;;23.50;39.10;;;;;;5070385;28;19920;-40
2021/03/25 09:42:34;;;;;;;;;;;23.50;39.10;;;;;;5070614;28;19921;-40
2021/03/25 09:45:28;;;;;;;;;;;23.50;39.10;;;;;;5073015;28;19924;-39
2021/03/25 09:47:58;;;;;;;;;;;23.60;39.20;;;;;;5070727;28;19946;-40
2021/03/25 09:50:25;;;;;;;;;;;23.50;39.10;;;;;;5070404;28;19956;-40
2021/03/25 09:52:54;;;;;;;;;;;23.60;39.20;;;;;;5070599;28;19924;-40
2021/03/25 09:55:24;;;;;;;;;;;23.60;39.20;;;;;;5071148;28;19920;-41
2021/03/25 09:57:51;;;;;;;;;;;23.50;39.10;;;;;;5071298;28;19924;-40
2021/03/25 10:00:18;;;;;;;;;;;23.50;39.00;;;;;;5070572;28;19920;-40
2021/03/25 10:02:44;;;;;;;;;;;23.50;39.00;;;;;;5070190;28;19920;-40
2021/03/25 10:05:17;;;;;;;;;;;23.60;39.10;;;;;;5070391;28;19927;-40
2021/03/25 10:07:44;;;;;;;;;;;23.60;39.10;;;;;;5064946;28;19927;-40
2021/03/25 10:10:37;;;;;;;;;;;23.60;39.10;;;;;;5071147;28;19927;-40
2021/03/25 10:13:04;;;;;;;;;;;23.60;39.10;;;;;;5053786;28;20011;-40
2021/03/25 10:15:31;;;;;;;;;;;23.60;39.10;;;;;;5070036;28;19927;-40
2021/03/25 10:18:06;;;;;;;;;;;23.60;39.10;;;;;;5070332;28;19924;-41
2021/03/25 10:20:52;;;;;;;;;;;23.60;39.10;;;;;;5070133;28;20416;-40
2021/03/25 10:23:31;;;;;;;;;;;23.60;39.10;;;;;;5070193;28;19920;-40
2021/03/25 10:26:03;;;;;;;;;;;23.60;39.10;;;;;;5070974;28;19924;-40
2021/03/25 10:28:31;;;;;;;;;;;23.60;39.10;;;;;;5071891;28;20458;-40
2021/03/25 10:31:05;;;;;;;;;;;23.60;39.10;;;;;;5071380;28;19920;-39
2021/03/25 10:33:34;;;;;;;;;;;23.60;39.10;;;;;;5073915;28;20279;-40
2021/03/25 10:36:02;;;;;;;;;;;23.60;39.10;;;;;;5075001;28;19920;-40
2021/03/25 10:38:31;;;;;;;;;;;23.60;39.10;;;;;;5074963;28;19920;-42
2021/03/25 10:40:59;;;;;;;;;;;23.60;39.10;;;;;;5074008;28;19924;-42
2021/03/25 10:43:34;;;;;;;;;;;23.60;39.10;;;;;;5073375;28;19928;-42
2021/03/25 10:46:06;;;;;;;;;;;23.60;39.10;;;;;;5073284;28;19920;-41
2021/03/25 10:48:35;;;;;;;;;;;23.60;39.10;;;;;;5073169;28;19920;-40
2021/03/25 10:51:07;;;;;;;;;;;23.70;39.20;;;;;;5074729;28;20347;-41
2021/03/25 10:53:35;;;;;;;;;;;23.60;39.10;;;;;;5074880;28;19927;-40
2021/03/25 10:56:16;;;;;;;;;;;23.60;39.10;;;;;;5073246;28;19962;-42
2021/03/25 10:59:06;;;;;;;;;;;23.60;39.10;;;;;;5074307;28;19920;-40
2021/03/25 11:01:56;;;;;;;;;;;23.70;39.20;;;;;;5073953;28;20451;-42
2021/03/25 11:04:32;;;;;;;;;;;23.70;39.20;;;;;;5075821;28;19920;-40
2021/03/25 11:07:11;;;;;;;;;;;23.70;39.20;;;;;;5106058;27;19924;-40
2021/03/25 11:09:38;;;;;;;;;;;23.60;39.10;;;;;;5072935;28;19927;-41
2021/03/25 11:12:24;;;;;;;;;;;23.60;39.10;;;;;;5072875;28;19921;-39
2021/03/25 11:14:56;;;;;;;;;;;23.70;39.20;;;;;;5072840;28;19927;-39
2021/03/25 11:17:25;;;;;;;;;;;23.70;39.10;;;;;;5072715;28;20409;-40
2021/03/25 11:19:53;;;;;;;;;;;23.70;39.20;;;;;;5072439;28;19924;-41
2021/03/25 11:22:21;;;;;;;;;;;23.70;39.10;;;;;;5072611;28;19966;-44
2021/03/25 11:24:49;;;;;;;;;;;23.70;39.10;;;;;;5072629;28;19928;-41
2021/03/25 11:27:16;;;;;;;;;;;23.70;39.10;;;;;;5073997;28;20664;-40
2021/03/25 11:29:44;;;;;;;;;;;23.70;39.10;;;;;;5073876;28;19920;-40
2021/03/25 11:32:16;;;;;;;;;;;23.70;39.20;;;;;;5072437;28;19932;-40
2021/03/25 11:34:44;;;;;;;;;;;23.70;39.20;;;;;;5072317;28;19924;-40
2021/03/25 11:37:25;;;;;;;;;;;23.70;39.20;;;;;;5072383;28;19931;-40
2021/03/25 11:40:15;;;;;;;;;;;23.70;39.10;;;;;;5070974;28;19924;-40
2021/03/25 11:42:44;;;;;;;;;;;23.70;39.10;;;;;;5073345;28;19970;-40
2021/03/25 11:45:29;;;;;;;;;;;23.70;39.10;;;;;;5073451;28;19928;-40
2021/03/25 11:47:55;;;;;;;;;;;23.70;39.10;;;;;;5073658;28;19928;-40
2021/03/25 11:50:22;;;;;;;;;;;23.70;39.20;;;;;;5072134;28;19927;-39
2021/03/25 11:52:50;;;;;;;;;;;23.70;39.10;;;;;;5073065;28;19925;-41
2021/03/25 11:55:22;;;;;;;;;;;23.70;39.10;;;;;;5073361;28;19924;-44
2021/03/25 11:57:49;;;;;;;;;;;23.70;39.10;;;;;;5071849;28;20578;-40
2021/03/25 12:00:18;;;;;;;;;;;23.70;39.10;;;;;;5071805;28;19928;-41
2021/03/25 12:02:45;;;;;;;;;;;23.70;39.10;;;;;;5071960;28;19921;-41
2021/03/25 12:05:27;;;;;;;;;;;23.70;39.10;;;;;;5072181;28;19927;-41
2021/03/25 12:08:00;;;;;;;;;;;23.70;39.20;;;;;;5057019;28;19924;-41
2021/03/25 12:10:27;;;;;;;;;;;23.70;39.20;;;;;;5086523;28;19921;-43
2021/03/25 12:12:53;;;;;;;;;;;23.70;39.20;;;;;;5072814;28;19924;-40
2021/03/25 12:15:21;;;;;;;;;;;23.70;39.20;;;;;;5071972;28;19924;-40
2021/03/25 12:17:52;;;;;;;;;;;23.80;39.20;;;;;;5071929;28;20372;-40
2021/03/25 12:20:30;;;;;;;;;;;23.80;39.20;;;;;;5071644;28;19942;-40
2021/03/25 12:23:03;;;;;;;;;;;23.70;39.20;;;;;;5103379;28;19931;-41
2021/03/25 12:25:38;;;;;;;;;;;23.70;39.20;;;;;;5071383;28;19924;-41
2021/03/25 12:28:04;;;;;;;;;;;23.70;39.20;;;;;;5071145;28;19920;-40
2021/03/25 12:30:31;;;;;;;;;;;23.80;39.30;;;;;;5070747;28;19920;-41
2021/03/25 12:32:58;;;;;;;;;;;23.80;39.30;;;;;;5071536;28;20007;-40
2021/03/25 12:35:26;;;;;;;;;;;23.70;39.20;;;;;;5074153;28;20285;-42
2021/03/25 12:37:52;;;;;;;;;;;23.70;39.20;;;;;;5072526;28;20376;-40
2021/03/25 12:40:20;;;;;;;;;;;23.80;39.30;;;;;;5071456;28;19928;-40
2021/03/25 12:42:47;;;;;;;;;;;23.80;39.30;;;;;;5072092;28;20275;-41
2021/03/25 12:45:23;;;;;;;;;;;23.70;39.20;;;;;;5071634;28;19920;-41
2021/03/25 12:47:49;;;;;;;;;;;23.80;39.30;;;;;;5072051;28;19966;-40
2021/03/25 12:50:16;;;;;;;;;;;23.80;39.30;;;;;;5072009;28;19976;-41
2021/03/25 12:52:43;;;;;;;;;;;23.80;39.30;;;;;;5071056;28;19974;-42
2021/03/25 12:55:09;;;;;;;;;;;23.70;39.20;;;;;;5072239;28;19925;-40
2021/03/25 12:57:36;;;;;;;;;;;23.80;39.30;;;;;;5072087;28;19920;-41
2021/03/25 13:00:06;;;;;;;;;;;23.80;39.30;;;;;;5072200;28;20006;-42
2021/03/25 13:02:35;;;;;;;;;;;23.80;39.30;;;;;;5072460;28;19920;-41
2021/03/25 13:05:02;;;;;;;;;;;23.80;39.30;;;;;;5071011;28;19982;-41
2021/03/25 13:07:28;;;;;;;;;;;23.80;39.30;;;;;;5084806;28;19968;-42
2021/03/25 13:09:55;;;;;;;;;;;23.80;39.30;;;;;;5071345;28;20340;-41
2021/03/25 13:12:23;;;;;;;;;;;23.80;39.30;;;;;;5072054;28;19926;-42
2021/03/25 13:14:50;;;;;;;;;;;23.80;39.30;;;;;;5071242;28;19924;-40
2021/03/25 13:17:16;;;;;;;;;;;23.80;39.30;;;;;;5070682;28;19927;-40
2021/03/25 13:20:03;;;;;;;;;;;23.80;39.30;;;;;;5071679;28;20015;-41
2021/03/25 13:22:30;;;;;;;;;;;23.80;39.40;;;;;;5071376;28;20264;-41
2021/03/25 13:24:57;;;;;;;;;;;23.80;39.30;;;;;;5070573;28;19977;-40
2021/03/25 13:27:24;;;;;;;;;;;23.80;39.40;;;;;;5070610;28;19927;-40
2021/03/25 13:29:50;;;;;;;;;;;23.80;39.40;;;;;;5070498;28;19925;-40
2021/03/25 13:32:17;;;;;;;;;;;23.80;39.40;;;;;;5069172;28;19921;-41
2021/03/25 13:34:44;;;;;;;;;;;23.80;39.40;;;;;;5070586;28;19935;-41
2021/03/25 13:37:11;;;;;;;;;;;23.80;39.40;;;;;;5071597;28;19928;-42
2021/03/25 13:39:37;;;;;;;;;;;23.80;39.40;;;;;;5071842;28;19962;-41
2021/03/25 13:42:04;;;;;;;;;;;23.80;39.40;;;;;;5071765;28;19936;-42
2021/03/25 13:44:31;;;;;;;;;;;23.90;39.50;;;;;;5070891;28;19927;-41
2021/03/25 13:46:57;;;;;;;;;;;23.80;39.40;;;;;;5070472;28;20314;-40
2021/03/25 13:49:24;;;;;;;;;;;23.90;39.50;;;;;;5071507;28;19920;-42
2021/03/25 13:51:51;;;;;;;;;;;23.90;39.50;;;;;;5070565;28;20284;-41
2021/03/25 13:54:18;;;;;;;;;;;23.80;39.40;;;;;;5070344;28;19974;-42
2021/03/25 13:56:44;;;;;;;;;;;23.80;39.40;;;;;;5102667;28;20368;-42
2021/03/25 13:59:12;;;;;;;;;;;23.80;39.40;;;;;;5071708;28;19943;-40
2021/03/25 14:01:38;;;;;;;;;;;23.80;39.40;;;;;;5071389;28;19920;-40
2021/03/25 14:04:05;;;;;;;;;;;23.90;39.50;;;;;;5074258;28;20031;-41
2021/03/25 14:06:32;;;;;;;;;;;23.90;39.60;;;;;;5082482;28;19920;-40
2021/03/25 14:08:58;;;;;;;;;;;23.90;39.60;;;;;;5074384;28;19930;-41
2021/03/25 14:11:25;;;;;;;;;;;23.90;39.60;;;;;;5073475;28;20292;-42
2021/03/25 14:13:51;;;;;;;;;;;23.80;39.50;;;;;;5074988;28;19920;-41
2021/03/25 14:16:18;;;;;;;;;;;23.90;39.60;;;;;;5074327;28;19920;-42
2021/03/25 14:18:47;;;;;;;;;;;23.90;39.60;;;;;;5074874;28;20006;-42
2021/03/25 14:21:21;;;;;;;;;;;23.90;39.60;;;;;;5073823;28;19925;-41
2021/03/25 14:23:49;;;;;;;;;;;23.90;39.60;;;;;;5073403;28;19921;-42
2021/03/25 14:26:16;;;;;;;;;;;23.90;39.60;;;;;;5074010;28;19920;-42
2021/03/25 14:28:43;;;;;;;;;;;23.90;39.60;;;;;;5075959;28;19920;-42
2021/03/25 14:31:10;;;;;;;;;;;23.80;39.50;;;;;;5071774;28;19925;-41
2021/03/25 14:33:37;;;;;;;;;;;23.90;39.60;;;;;;5075100;28;20376;-40
2021/03/25 14:36:05;;;;;;;;;;;23.90;39.60;;;;;;5075261;28;19921;-45
2021/03/25 14:38:32;;;;;;;;;;;23.90;39.60;;;;;;5073134;28;19966;-42
2021/03/25 14:40:58;;;;;;;;;;;23.90;39.60;;;;;;5073437;28;20387;-40
2021/03/25 14:43:26;;;;;;;;;;;23.90;39.60;;;;;;5074314;28;19924;-40